Terminal Aerodrome Forecast
Issued by NWS Cleveland, OH

Home | Current Version | Previous Version | Text Only | Print | Product List | Glossary On
Versions: 1 2 3 4 5 6 7 8 9 10 11 12 13 14 15 16 17 18 19
000
FTUS41 KCLE 230500
TAFERI
TAF
KERI 230526Z 2306/2406 28010G18KT P6SM VCSH SCT009 OVC025
      TEMPO 2308/2311 -SHRA BKN009 OVC015
     FM231100 32012G20KT P6SM SCT025 OVC035
     FM231700 30014G21KT P6SM SCT045
     FM232300 32006KT P6SM SCT250=

USA.gov is the U.S. government's official web portal to all federal, state and local government web resources and services.